createdAt,value
2022-07-29T00:01:46.186Z,9.77
2022-07-29T00:04:14.089Z,8.70
2022-07-29T00:06:41.749Z,9.93
2022-07-29T00:09:09.216Z,9.17
2022-07-29T00:11:36.390Z,9.27
2022-07-29T00:14:03.551Z,8.27
2022-07-29T00:16:30.793Z,8.37
2022-07-29T00:19:00.644Z,10.02
2022-07-29T00:21:29.347Z,7.73
2022-07-29T00:23:56.575Z,8.70
2022-07-29T00:26:23.687Z,8.23
2022-07-29T00:28:50.849Z,8.40
2022-07-29T00:31:18.060Z,10.00
2022-07-29T00:33:45.286Z,10.53
2022-07-29T00:36:12.424Z,9.83
2022-07-29T00:38:39.900Z,10.40
2022-07-29T00:41:07.135Z,9.60
2022-07-29T00:43:34.243Z,8.57
2022-07-29T00:46:01.367Z,8.97
2022-07-29T00:48:28.519Z,9.73
2022-07-29T00:50:56.573Z,10.20
2022-07-29T00:53:24.247Z,10.03
2022-07-29T00:55:51.425Z,8.33
2022-07-29T00:58:19.619Z,8.23
2022-07-29T01:00:46.794Z,9.87
2022-07-29T01:03:14.017Z,10.97
2022-07-29T01:05:51.590Z,9.70
2022-07-29T01:08:19.299Z,8.60
2022-07-29T01:10:47.934Z,10.23
2022-07-29T01:13:16.189Z,7.53
2022-07-29T01:15:49.879Z,7.40
2022-07-29T01:18:40.515Z,9.00
2022-07-29T01:21:07.661Z,8.87
2022-07-29T01:23:53.986Z,7.60
2022-07-29T01:26:21.137Z,7.17
2022-07-29T01:28:49.039Z,9.40
2022-07-29T01:31:25.352Z,8.10
2022-07-29T01:33:59.184Z,9.33
2022-07-29T01:36:38.106Z,7.70
2022-07-29T01:39:20.259Z,7.80
2022-07-29T01:41:58.521Z,7.70
2022-07-29T01:44:31.128Z,8.33
2022-07-29T01:46:59.932Z,8.37
2022-07-29T01:49:28.826Z,9.90
2022-07-29T01:51:59.153Z,9.10
2022-07-29T01:54:58.396Z,9.53
2022-07-29T01:57:29.912Z,8.40
2022-07-29T01:59:58.980Z,8.37
2022-07-29T02:02:26.332Z,8.97
2022-07-29T02:04:54.036Z,8.33
2022-07-29T02:07:22.740Z,8.53
2022-07-29T02:09:51.230Z,9.33
2022-07-29T02:12:19.588Z,7.13
2022-07-29T02:14:48.789Z,9.93
2022-07-29T02:17:18.992Z,10.30
2022-07-29T02:19:46.534Z,9.17
2022-07-29T02:22:14.104Z,9.70
2022-07-29T02:24:42.124Z,8.60
2022-07-29T02:27:10.134Z,11.00
2022-07-29T02:29:38.836Z,8.20
2022-07-29T02:32:06.770Z,9.10
2022-07-29T02:34:35.066Z,9.67
2022-07-29T02:37:03.068Z,10.33
2022-07-29T02:39:31.052Z,10.87
2022-07-29T02:42:04.168Z,8.00
2022-07-29T02:44:34.875Z,7.93
2022-07-29T02:47:07.965Z,12.37
2022-07-29T02:49:47.463Z,9.03
2022-07-29T02:52:20.031Z,8.47
2022-07-29T02:54:50.198Z,9.10
2022-07-29T02:57:21.974Z,7.97
2022-07-29T02:59:51.672Z,7.47
2022-07-29T03:02:19.263Z,8.40
2022-07-29T03:04:47.898Z,9.10
2022-07-29T03:07:16.152Z,8.83
2022-07-29T03:09:44.341Z,9.83
2022-07-29T03:12:12.134Z,7.93
2022-07-29T03:14:39.872Z,9.53
2022-07-29T03:17:07.131Z,10.47
2022-07-29T03:19:35.188Z,9.00
2022-07-29T03:22:02.420Z,9.67
2022-07-29T03:24:30.995Z,8.70
2022-07-29T03:26:58.816Z,8.40
2022-07-29T03:29:33.712Z,10.93
2022-07-29T03:32:02.612Z,8.77
2022-07-29T03:34:30.651Z,9.57
2022-07-29T03:36:57.787Z,8.80
2022-07-29T03:39:26.612Z,7.83
2022-07-29T03:41:54.844Z,9.57
2022-07-29T03:44:22.622Z,9.77
2022-07-29T03:46:51.099Z,8.07
2022-07-29T03:49:18.996Z,9.67
2022-07-29T03:51:46.395Z,10.67
2022-07-29T03:54:14.454Z,8.53
2022-07-29T03:56:45.548Z,11.67
2022-07-29T03:59:13.027Z,9.50
2022-07-29T04:01:40.646Z,8.83
2022-07-29T04:04:07.935Z,8.13
2022-07-29T04:06:44.847Z,8.30
2022-07-29T04:09:13.372Z,8.07
2022-07-29T04:12:02.612Z,7.87
2022-07-29T04:14:28.299Z,7.97
2022-07-29T04:16:56.230Z,8.70
2022-07-29T04:19:23.663Z,8.30
2022-07-29T04:21:50.824Z,8.50
2022-07-29T04:24:18.566Z,8.67
2022-07-29T04:26:47.324Z,7.13
2022-07-29T04:29:15.384Z,8.40
2022-07-29T04:31:43.028Z,8.60
2022-07-29T04:34:10.340Z,11.13
2022-07-29T04:36:37.517Z,9.77
2022-07-29T04:39:05.187Z,8.23
2022-07-29T04:41:33.288Z,7.93
2022-07-29T04:44:05.862Z,10.23
2022-07-29T04:46:39.655Z,8.00
2022-07-29T04:49:06.895Z,9.53
2022-07-29T04:51:34.102Z,8.17
2022-07-29T04:54:01.247Z,7.93
2022-07-29T04:56:28.943Z,9.47
2022-07-29T04:58:56.072Z,9.27
2022-07-29T05:01:23.214Z,9.27
2022-07-29T05:03:50.535Z,11.17
2022-07-29T05:06:17.732Z,6.67
2022-07-29T05:08:44.886Z,8.80
2022-07-29T05:11:14.182Z,9.10
2022-07-29T05:13:45.824Z,7.83
2022-07-29T05:16:14.183Z,10.70
2022-07-29T05:18:41.514Z,10.37
2022-07-29T05:21:08.674Z,9.90
2022-07-29T05:23:35.819Z,8.63
2022-07-29T05:26:02.971Z,9.57
2022-07-29T05:28:30.208Z,9.63
2022-07-29T05:30:57.435Z,8.43
2022-07-29T05:33:35.151Z,10.30
2022-07-29T05:36:06.424Z,10.37
2022-07-29T05:38:33.596Z,7.97
2022-07-29T05:41:01.156Z,8.07
2022-07-29T05:43:28.942Z,9.53
2022-07-29T05:45:56.203Z,8.07
2022-07-29T05:48:23.491Z,10.70
2022-07-29T05:50:50.633Z,8.63
2022-07-29T05:53:19.445Z,9.93
2022-07-29T05:55:48.060Z,8.93
2022-07-29T05:58:15.312Z,8.20
2022-07-29T06:00:42.510Z,8.17
2022-07-29T06:03:09.645Z,7.33
2022-07-29T06:05:36.929Z,6.30
2022-07-29T06:08:05.038Z,8.63
2022-07-29T06:10:32.200Z,7.70
2022-07-29T06:12:59.340Z,6.97
2022-07-29T06:15:26.465Z,8.00
2022-07-29T06:18:00.743Z,9.13
2022-07-29T06:20:32.141Z,7.67
2022-07-29T06:22:59.728Z,7.53
2022-07-29T06:25:27.345Z,7.70
2022-07-29T06:27:54.506Z,6.97
2022-07-29T06:30:21.670Z,6.40
2022-07-29T06:32:49.024Z,6.83
2022-07-29T06:38:29.823Z,7.60
2022-07-29T06:41:22.852Z,7.77
2022-07-29T06:43:55.249Z,7.97
2022-07-29T06:46:24.240Z,8.87
2022-07-29T06:48:53.060Z,9.23
2022-07-29T06:51:23.038Z,6.17
2022-07-29T06:53:58.229Z,7.93
2022-07-29T06:56:27.016Z,7.93
2022-07-29T06:58:54.260Z,8.07
2022-07-29T07:01:21.810Z,6.20
2022-07-29T07:03:49.044Z,7.30
2022-07-29T07:06:16.543Z,6.90
2022-07-29T07:08:43.718Z,7.50
2022-07-29T07:11:10.878Z,6.97
2022-07-29T07:13:38.082Z,8.80
2022-07-29T07:16:05.550Z,6.53
2022-07-29T07:18:32.922Z,6.67
2022-07-29T07:21:00.087Z,6.00
2022-07-29T07:23:27.447Z,7.33
2022-07-29T07:25:54.636Z,6.60
2022-07-29T07:28:24.564Z,5.63
2022-07-29T07:30:52.544Z,5.17
2022-07-29T07:33:19.737Z,6.53
2022-07-29T07:35:46.884Z,7.77
2022-07-29T07:38:14.055Z,7.40
2022-07-29T07:40:41.653Z,6.00
2022-07-29T07:43:08.834Z,6.97
2022-07-29T07:45:38.096Z,6.23
2022-07-29T07:48:05.882Z,6.40
2022-07-29T07:50:33.269Z,6.13
2022-07-29T07:53:02.944Z,5.23
2022-07-29T07:55:53.266Z,6.07
2022-07-29T07:58:17.233Z,5.10
2022-07-29T08:00:44.545Z,6.23
2022-07-29T08:03:16.964Z,9.13
2022-07-29T08:05:44.779Z,10.00
2022-07-29T08:08:11.978Z,8.17
2022-07-29T08:10:54.661Z,7.53
2022-07-29T08:13:22.791Z,7.77
2022-07-29T08:15:58.574Z,7.87
2022-07-29T08:18:26.719Z,7.27
2022-07-29T08:20:54.146Z,7.57
2022-07-29T08:23:21.503Z,7.90
2022-07-29T08:25:50.075Z,7.03
2022-07-29T08:28:17.910Z,7.90
2022-07-29T08:30:45.058Z,7.93
2022-07-29T08:33:12.219Z,4.87
2022-07-29T08:35:40.413Z,6.90
2022-07-29T08:38:07.567Z,6.40
2022-07-29T08:40:34.714Z,5.93
2022-07-29T08:43:08.561Z,6.37
2022-07-29T08:46:02.165Z,6.10
2022-07-29T08:48:29.364Z,5.70
2022-07-29T08:50:57.282Z,6.30
2022-07-29T08:53:27.305Z,6.47
2022-07-29T08:55:54.706Z,4.70
2022-07-29T08:58:23.295Z,6.43
2022-07-29T09:00:53.385Z,7.30
2022-07-29T09:03:25.240Z,6.87
2022-07-29T09:05:53.197Z,6.03
2022-07-29T09:08:21.055Z,6.00
2022-07-29T09:10:48.511Z,8.32
2022-07-29T09:13:15.659Z,7.28
2022-07-29T09:15:42.879Z,11.60
2022-07-29T09:18:26.115Z,8.33
2022-07-29T09:21:15.799Z,9.15
2022-07-29T09:23:44.548Z,6.57
2022-07-29T09:26:12.187Z,5.93
2022-07-29T09:28:43.358Z,7.60
2022-07-29T09:31:10.595Z,6.40
2022-07-29T09:33:41.297Z,8.70
2022-07-29T09:36:09.162Z,4.93
2022-07-29T09:38:37.715Z,8.47
2022-07-29T09:41:06.505Z,6.13
2022-07-29T09:43:34.792Z,7.25
2022-07-29T09:46:12.895Z,6.37
2022-07-29T09:48:40.248Z,5.13
2022-07-29T09:51:20.270Z,7.43
2022-07-29T09:53:48.634Z,6.03
2022-07-29T09:56:15.857Z,6.07
2022-07-29T09:58:42.965Z,5.00
2022-07-29T10:01:10.227Z,6.68
2022-07-29T10:03:55.631Z,7.07
2022-07-29T10:06:22.811Z,5.07
2022-07-29T10:08:50.813Z,5.65
2022-07-29T10:11:18.927Z,7.37
2022-07-29T10:13:48.035Z,7.43
2022-07-29T10:16:16.214Z,5.90
2022-07-29T10:18:44.730Z,5.75
2022-07-29T10:21:35.550Z,7.45
2022-07-29T10:24:01.321Z,4.70
2022-07-29T10:26:29.060Z,5.18
2022-07-29T10:28:57.082Z,5.35
2022-07-29T10:31:28.944Z,4.50
2022-07-29T10:33:59.206Z,7.18
2022-07-29T10:36:28.452Z,6.25
2022-07-29T10:38:58.463Z,4.65
2022-07-29T10:41:32.429Z,7.25
2022-07-29T10:44:19.389Z,4.55
2022-07-29T10:46:50.688Z,5.63
2022-07-29T10:49:19.537Z,4.45
2022-07-29T10:51:52.625Z,5.03
2022-07-29T10:54:20.459Z,7.00
2022-07-29T10:56:49.025Z,7.40
2022-07-29T10:59:22.844Z,6.38
2022-07-29T11:02:02.704Z,5.13
2022-07-29T11:04:44.709Z,6.10
2022-07-29T11:07:13.190Z,6.13
2022-07-29T11:09:42.357Z,6.00
2022-07-29T11:12:29.686Z,5.40
2022-07-29T11:14:58.053Z,6.25
2022-07-29T11:17:25.297Z,4.88
2022-07-29T11:19:52.700Z,5.75
2022-07-29T11:22:36.480Z,6.18
2022-07-29T11:25:16.854Z,5.25
2022-07-29T11:27:44.654Z,7.18
2022-07-29T11:30:13.357Z,5.72
2022-07-29T11:35:38.488Z,6.40
2022-07-29T11:38:31.899Z,4.38
2022-07-29T11:41:36.923Z,5.70
2022-07-29T11:44:04.674Z,4.65
2022-07-29T11:46:53.856Z,5.53
2022-07-29T11:49:32.733Z,7.72
2022-07-29T11:52:02.644Z,5.38
2022-07-29T11:54:38.870Z,4.00
2022-07-29T11:57:22.093Z,5.18
2022-07-29T11:59:49.702Z,5.03
2022-07-29T12:02:37.424Z,6.13
2022-07-29T12:05:10.788Z,6.35
2022-07-29T12:07:38.950Z,5.53
2022-07-29T12:10:06.755Z,7.65
2022-07-29T12:12:39.680Z,4.43
2022-07-29T12:15:13.905Z,4.85
2022-07-29T12:17:42.884Z,5.05
2022-07-29T12:20:10.286Z,5.30
2022-07-29T12:22:42.090Z,3.92
2022-07-29T12:25:34.853Z,5.25
2022-07-29T12:28:00.594Z,4.95
2022-07-29T12:30:36.223Z,5.65
2022-07-29T12:33:03.529Z,5.70
2022-07-29T12:35:30.723Z,4.78
2022-07-29T12:37:58.915Z,5.35
2022-07-29T12:40:26.801Z,5.28
2022-07-29T12:43:13.189Z,5.53
2022-07-29T12:45:41.391Z,5.35
2022-07-29T12:48:12.031Z,5.63
2022-07-29T12:50:53.962Z,5.80
2022-07-29T12:53:21.119Z,5.07
2022-07-29T12:55:52.635Z,5.38
2022-07-29T12:58:29.879Z,4.88
2022-07-29T13:01:01.147Z,5.13
2022-07-29T13:03:29.539Z,5.75
2022-07-29T13:06:03.160Z,4.15
2022-07-29T13:08:30.399Z,5.57
2022-07-29T13:10:57.663Z,4.82
2022-07-29T13:13:24.796Z,4.35
2022-07-29T13:16:06.996Z,5.72
2022-07-29T13:18:37.183Z,3.33
2022-07-29T13:21:14.620Z,5.53
2022-07-29T13:23:42.564Z,3.80
2022-07-29T13:26:10.610Z,4.88
2022-07-29T13:28:37.729Z,4.28
2022-07-29T13:31:05.630Z,3.97
2022-07-29T13:33:32.905Z,5.55
2022-07-29T13:36:00.047Z,4.68
2022-07-29T13:38:31.270Z,5.10
2022-07-29T13:40:58.581Z,5.50
2022-07-29T13:43:25.747Z,3.65
2022-07-29T13:45:53.026Z,5.88
2022-07-29T13:48:20.334Z,4.70
2022-07-29T13:50:48.882Z,4.38
2022-07-29T13:53:17.724Z,4.38
2022-07-29T13:55:45.356Z,3.75
2022-07-29T13:58:12.560Z,4.20
2022-07-29T14:00:39.766Z,5.85
2022-07-29T14:03:07.438Z,5.05
2022-07-29T14:05:34.632Z,4.75
2022-07-29T14:08:01.744Z,3.92
2022-07-29T14:10:28.917Z,5.35
2022-07-29T14:12:56.064Z,4.60
2022-07-29T14:15:24.305Z,3.80
2022-07-29T14:17:51.443Z,4.00
2022-07-29T14:20:18.908Z,3.42
2022-07-29T14:22:46.047Z,3.58
2022-07-29T14:25:14.933Z,4.63
2022-07-29T14:27:42.699Z,4.43
2022-07-29T14:30:10.237Z,4.55
2022-07-29T14:32:37.380Z,5.88
2022-07-29T14:35:04.779Z,5.18
2022-07-29T14:37:40.107Z,5.28
2022-07-29T14:40:08.110Z,5.47
2022-07-29T14:42:35.347Z,5.80
2022-07-29T14:45:02.560Z,4.03
2022-07-29T14:47:29.691Z,4.25
2022-07-29T14:49:56.819Z,4.82
2022-07-29T14:52:24.058Z,2.97
2022-07-29T14:54:51.219Z,4.68
2022-07-29T14:57:18.351Z,4.53
2022-07-29T14:59:45.487Z,4.15
2022-07-29T15:02:12.652Z,5.55
2022-07-29T15:04:40.560Z,3.03
2022-07-29T15:07:07.810Z,3.22
2022-07-29T15:09:36.337Z,3.33
2022-07-29T15:12:08.971Z,3.53
2022-07-29T15:14:36.119Z,3.78
2022-07-29T15:17:04.559Z,3.60
2022-07-29T15:19:32.455Z,5.28
2022-07-29T15:21:59.933Z,6.07
2022-07-29T15:24:27.155Z,3.78
2022-07-29T15:26:55.062Z,3.40
2022-07-29T15:29:22.466Z,4.32
2022-07-29T15:31:49.665Z,4.80
2022-07-29T15:34:17.119Z,4.68
2022-07-29T15:36:53.068Z,4.35
2022-07-29T15:39:20.943Z,5.22
2022-07-29T15:41:48.212Z,4.43
2022-07-29T15:44:15.351Z,5.25
2022-07-29T15:47:01.902Z,5.63
2022-07-29T15:49:47.970Z,4.88
2022-07-29T15:52:16.561Z,4.85
2022-07-29T15:54:43.687Z,5.00
2022-07-29T15:57:10.900Z,5.32
2022-07-29T15:59:38.343Z,5.40
2022-07-29T16:02:05.927Z,4.40
2022-07-29T16:04:33.181Z,5.63
2022-07-29T16:07:00.729Z,4.95
2022-07-29T16:09:28.937Z,5.60
2022-07-29T16:11:56.712Z,4.18
2022-07-29T16:14:24.445Z,4.72
2022-07-29T16:16:56.307Z,3.42
2022-07-29T16:19:23.782Z,4.00
2022-07-29T16:21:50.952Z,4.50
2022-07-29T16:24:18.283Z,4.32
2022-07-29T16:26:45.440Z,4.50
2022-07-29T16:29:12.598Z,3.90
2022-07-29T16:31:39.810Z,4.43
2022-07-29T16:34:07.016Z,5.68
2022-07-29T16:36:34.216Z,4.15
2022-07-29T16:39:01.569Z,3.13
2022-07-29T16:41:29.660Z,3.67
2022-07-29T16:43:56.818Z,4.22
2022-07-29T16:46:24.387Z,5.78
2022-07-29T16:48:53.090Z,2.78
2022-07-29T16:51:20.272Z,4.80
2022-07-29T16:53:50.478Z,3.55
2022-07-29T16:56:18.007Z,3.25
2022-07-29T16:58:45.142Z,5.20
2022-07-29T17:01:12.961Z,3.67
2022-07-29T17:04:00.738Z,3.90
2022-07-29T17:06:29.557Z,2.75
2022-07-29T17:08:57.203Z,3.55
2022-07-29T17:11:52.941Z,4.60
2022-07-29T17:14:11.677Z,4.45
2022-07-29T17:16:38.909Z,3.47
2022-07-29T17:19:06.212Z,4.90
2022-07-29T17:21:33.398Z,3.92
2022-07-29T17:24:00.529Z,3.75
2022-07-29T17:26:28.292Z,4.40
2022-07-29T17:28:55.956Z,3.38
2022-07-29T17:31:23.642Z,4.05
2022-07-29T17:33:50.975Z,4.10
2022-07-29T17:36:24.220Z,5.25
2022-07-29T17:39:11.606Z,3.05
2022-07-29T17:41:41.000Z,4.38
2022-07-29T17:44:09.432Z,4.25
2022-07-29T17:46:37.207Z,3.33
2022-07-29T17:49:04.666Z,4.93
2022-07-29T17:51:31.853Z,5.50
2022-07-29T17:53:59.708Z,3.47
2022-07-29T17:56:26.861Z,4.68
2022-07-29T17:58:54.469Z,5.38
2022-07-29T18:01:21.730Z,3.33
2022-07-29T18:03:48.984Z,4.18
2022-07-29T18:06:16.259Z,3.95
2022-07-29T18:08:47.395Z,3.33
2022-07-29T18:11:15.132Z,4.60
2022-07-29T18:13:42.699Z,4.45
2022-07-29T18:16:10.102Z,4.45
2022-07-29T18:18:37.327Z,6.10
2022-07-29T18:21:05.027Z,6.03
2022-07-29T18:23:32.262Z,4.32
2022-07-29T18:25:59.410Z,3.35
2022-07-29T18:28:26.570Z,6.15
2022-07-29T18:30:53.840Z,4.00
2022-07-29T18:33:22.382Z,3.15
2022-07-29T18:35:50.983Z,4.57
2022-07-29T18:38:18.356Z,4.40
2022-07-29T18:40:46.065Z,4.75
2022-07-29T18:43:13.612Z,4.35
2022-07-29T18:45:42.592Z,4.05
2022-07-29T18:48:12.685Z,3.47
2022-07-29T18:50:40.482Z,4.10
2022-07-29T18:53:07.611Z,4.53
2022-07-29T18:55:34.801Z,4.43
2022-07-29T18:58:02.036Z,5.55
2022-07-29T19:00:30.521Z,3.05
2022-07-29T19:02:57.927Z,5.70
2022-07-29T19:05:25.446Z,5.68
2022-07-29T19:07:54.743Z,4.50
2022-07-29T19:10:22.037Z,4.30
2022-07-29T19:12:49.212Z,5.22
2022-07-29T19:15:20.447Z,4.47
2022-07-29T19:17:48.534Z,5.00
2022-07-29T19:20:16.012Z,3.75
2022-07-29T19:22:43.208Z,3.25
2022-07-29T19:25:10.463Z,6.22
2022-07-29T19:27:37.637Z,5.68
2022-07-29T19:30:06.940Z,4.63
2022-07-29T19:32:34.259Z,5.00
2022-07-29T19:35:20.435Z,5.28
2022-07-29T19:37:47.595Z,3.60
2022-07-29T19:40:16.183Z,4.32
2022-07-29T19:42:43.679Z,4.13
2022-07-29T19:45:11.163Z,4.50
2022-07-29T19:47:38.436Z,3.50
2022-07-29T19:50:06.083Z,4.85
2022-07-29T19:52:33.224Z,4.65
2022-07-29T19:55:05.287Z,4.50
2022-07-29T19:57:40.671Z,5.72
2022-07-29T20:00:11.053Z,5.30
2022-07-29T20:02:38.845Z,3.70
2022-07-29T20:05:07.020Z,4.53
2022-07-29T20:07:34.488Z,5.72
2022-07-29T20:10:01.664Z,4.65
2022-07-29T20:12:28.856Z,5.35
2022-07-29T20:14:56.008Z,4.90
2022-07-29T20:17:23.232Z,4.07
2022-07-29T20:19:51.189Z,4.60
2022-07-29T20:22:20.972Z,5.47
2022-07-29T20:24:49.136Z,4.00
2022-07-29T20:27:16.390Z,4.55
2022-07-29T20:29:43.504Z,4.82
2022-07-29T20:32:12.408Z,4.60
2022-07-29T20:34:41.325Z,6.23
2022-07-29T20:37:13.357Z,4.38
2022-07-29T20:39:42.617Z,3.72
2022-07-29T20:42:09.782Z,5.43
2022-07-29T20:44:36.946Z,4.03
2022-07-29T20:47:04.168Z,5.37
2022-07-29T20:49:31.305Z,4.10
2022-07-29T20:51:58.642Z,6.15
2022-07-29T20:54:25.892Z,5.75
2022-07-29T20:56:53.173Z,4.78
2022-07-29T20:59:20.332Z,5.07
2022-07-29T21:01:47.605Z,5.17
2022-07-29T21:04:14.920Z,4.20
2022-07-29T21:06:42.038Z,5.18
2022-07-29T21:09:09.158Z,4.87
2022-07-29T21:11:43.667Z,5.15
2022-07-29T21:14:27.857Z,5.03
2022-07-29T21:16:55.304Z,6.05
2022-07-29T21:19:22.438Z,4.37
2022-07-29T21:21:49.570Z,7.57
2022-07-29T21:24:16.699Z,5.43
2022-07-29T21:26:47.453Z,4.30
2022-07-29T21:29:30.985Z,5.67
2022-07-29T21:31:58.109Z,5.97
2022-07-29T21:34:28.083Z,5.57
2022-07-29T21:36:55.228Z,6.07
2022-07-29T21:39:22.434Z,7.72
2022-07-29T21:41:49.764Z,6.63
2022-07-29T21:44:16.899Z,9.90
2022-07-29T21:46:44.030Z,8.70
2022-07-29T21:49:11.321Z,9.17
2022-07-29T21:51:38.511Z,8.60
2022-07-29T21:54:05.718Z,9.60
2022-07-29T21:56:33.641Z,9.63
2022-07-29T21:59:01.035Z,7.57
2022-07-29T22:01:28.223Z,7.17
2022-07-29T22:04:06.074Z,6.20
2022-07-29T22:06:34.549Z,6.17
2022-07-29T22:09:01.722Z,7.10
2022-07-29T22:11:28.862Z,6.40
2022-07-29T22:13:56.062Z,6.10
2022-07-29T22:16:23.317Z,7.13
2022-07-29T22:18:50.443Z,7.33
2022-07-29T22:21:17.591Z,6.03
2022-07-29T22:23:44.856Z,6.07
2022-07-29T22:26:12.051Z,5.70
2022-07-29T22:28:39.357Z,6.80
2022-07-29T22:31:07.872Z,6.70
2022-07-29T22:33:35.082Z,6.30
2022-07-29T22:36:02.447Z,5.10
2022-07-29T22:38:29.663Z,5.33
2022-07-29T22:41:00.590Z,6.57
2022-07-29T22:43:28.925Z,5.03
2022-07-29T22:45:56.098Z,7.67
2022-07-29T22:48:23.302Z,5.97
2022-07-29T22:50:50.468Z,6.47
2022-07-29T22:53:17.645Z,5.57
2022-07-29T22:55:45.796Z,5.33
2022-07-29T22:58:13.088Z,6.13
2022-07-29T23:00:40.213Z,5.50
2022-07-29T23:03:07.416Z,6.13
2022-07-29T23:05:34.728Z,5.53
2022-07-29T23:08:01.889Z,4.53
2022-07-29T23:10:29.218Z,5.40
2022-07-29T23:12:56.432Z,5.00
2022-07-29T23:15:25.832Z,4.77
2022-07-29T23:17:52.988Z,4.63
2022-07-29T23:20:20.164Z,5.93
2022-07-29T23:22:47.522Z,5.30
2022-07-29T23:25:14.658Z,5.27
2022-07-29T23:27:41.992Z,5.43
2022-07-29T23:30:09.494Z,5.43
2022-07-29T23:32:36.665Z,6.07
2022-07-29T23:35:05.546Z,5.00
2022-07-29T23:37:32.690Z,7.30
2022-07-29T23:39:59.870Z,4.70
2022-07-29T23:42:27.034Z,6.27
2022-07-29T23:44:54.159Z,6.67
2022-07-29T23:47:21.278Z,6.07
2022-07-29T23:49:49.930Z,6.93
2022-07-29T23:52:17.779Z,5.37
2022-07-29T23:54:45.006Z,5.63
2022-07-29T23:57:12.159Z,4.90
2022-07-29T23:59:39.284Z,5.47
